sensor_id;sensor_type;location;lat;lon;timestamp;temperature;humidity
3628;DHT22;1830;49.000;12.074;2022-12-18T00:02:09;-3.70;99.90
3628;DHT22;1830;49.000;12.074;2022-12-18T00:04:36;-3.70;99.90
3628;DHT22;1830;49.000;12.074;2022-12-18T00:07:04;-3.80;99.90
3628;DHT22;1830;49.000;12.074;2022-12-18T00:09:31;-3.80;99.90
3628;DHT22;1830;49.000;12.074;2022-12-18T00:11:58;-3.90;99.90
3628;DHT22;1830;49.000;12.074;2022-12-18T00:14:25;-3.80;99.90
3628;DHT22;1830;49.000;12.074;2022-12-18T00:16:52;-3.80;99.90
3628;DHT22;1830;49.000;12.074;2022-12-18T00:19:19;-3.80;99.90
3628;DHT22;1830;49.000;12.074;2022-12-18T00:21:46;-3.80;99.90
3628;DHT22;1830;49.000;12.074;2022-12-18T00:24:14;-3.80;99.90
3628;DHT22;1830;49.000;12.074;2022-12-18T00:26:41;-3.70;99.90
3628;DHT22;1830;49.000;12.074;2022-12-18T00:29:10;-3.70;99.90
3628;DHT22;1830;49.000;12.074;2022-12-18T00:31:40;-3.60;99.90
3628;DHT22;1830;49.000;12.074;2022-12-18T00:34:08;-3.50;99.90
3628;DHT22;1830;49.000;12.074;2022-12-18T00:36:36;-3.60;99.90
3628;DHT22;1830;49.000;12.074;2022-12-18T00:39:04;-3.70;99.90
3628;DHT22;1830;49.000;12.074;2022-12-18T00:41:33;-3.60;99.90
3628;DHT22;1830;49.000;12.074;2022-12-18T00:44:18;-3.50;99.90
3628;DHT22;1830;49.000;12.074;2022-12-18T00:46:45;-3.50;99.90
3628;DHT22;1830;49.000;12.074;2022-12-18T00:49:13;-3.40;99.90
3628;DHT22;1830;49.000;12.074;2022-12-18T00:51:41;-3.50;99.90
3628;DHT22;1830;49.000;12.074;2022-12-18T00:54:07;-3.50;99.90
3628;DHT22;1830;49.000;12.074;2022-12-18T00:56:37;-3.60;99.90
3628;DHT22;1830;49.000;12.074;2022-12-18T00:59:04;-3.70;99.90
3628;DHT22;1830;49.000;12.074;2022-12-18T01:01:31;-3.80;99.90
3628;DHT22;1830;49.000;12.074;2022-12-18T01:04:00;-3.70;99.90
3628;DHT22;1830;49.000;12.074;2022-12-18T01:06:27;-3.70;99.90
3628;DHT22;1830;49.000;12.074;2022-12-18T01:08:54;-3.60;99.90
3628;DHT22;1830;49.000;12.074;2022-12-18T01:11:22;-3.60;99.90
3628;DHT22;1830;49.000;12.074;2022-12-18T01:13:52;-3.50;99.90
3628;DHT22;1830;49.000;12.074;2022-12-18T01:16:19;-3.50;99.90
3628;DHT22;1830;49.000;12.074;2022-12-18T01:18:46;-3.50;99.90
3628;DHT22;1830;49.000;12.074;2022-12-18T01:21:15;-3.50;99.90
3628;DHT22;1830;49.000;12.074;2022-12-18T01:23:42;-3.40;99.90
3628;DHT22;1830;49.000;12.074;2022-12-18T01:26:11;-3.40;99.90
3628;DHT22;1830;49.000;12.074;2022-12-18T01:28:39;-3.30;99.90
3628;DHT22;1830;49.000;12.074;2022-12-18T01:31:12;-3.60;99.90
3628;DHT22;1830;49.000;12.074;2022-12-18T01:33:39;-3.60;99.90
3628;DHT22;1830;49.000;12.074;2022-12-18T01:36:06;-3.50;99.90
3628;DHT22;1830;49.000;12.074;2022-12-18T01:38:33;-3.40;99.90
3628;DHT22;1830;49.000;12.074;2022-12-18T01:41:00;-3.40;99.90
3628;DHT22;1830;49.000;12.074;2022-12-18T01:43:45;-3.40;99.90
3628;DHT22;1830;49.000;12.074;2022-12-18T01:46:14;-3.50;99.90
3628;DHT22;1830;49.000;12.074;2022-12-18T01:48:41;-3.50;99.90
3628;DHT22;1830;49.000;12.074;2022-12-18T01:51:10;-3.50;99.90
3628;DHT22;1830;49.000;12.074;2022-12-18T01:53:39;-3.60;99.90
3628;DHT22;1830;49.000;12.074;2022-12-18T01:56:07;-3.50;99.90
3628;DHT22;1830;49.000;12.074;2022-12-18T01:58:41;-3.40;99.90
3628;DHT22;1830;49.000;12.074;2022-12-18T02:01:10;-3.40;99.90
3628;DHT22;1830;49.000;12.074;2022-12-18T02:03:41;-3.50;99.90
3628;DHT22;1830;49.000;12.074;2022-12-18T02:06:12;-3.50;99.90
3628;DHT22;1830;49.000;12.074;2022-12-18T02:08:43;-3.60;99.90
3628;DHT22;1830;49.000;12.074;2022-12-18T02:11:18;-3.60;99.90
3628;DHT22;1830;49.000;12.074;2022-12-18T02:14:01;-3.50;99.90
3628;DHT22;1830;49.000;12.074;2022-12-18T02:16:35;-3.50;99.90
3628;DHT22;1830;49.000;12.074;2022-12-18T02:21:20;-3.50;99.90
3628;DHT22;1830;49.000;12.074;2022-12-18T02:23:56;-3.50;99.90
3628;DHT22;1830;49.000;12.074;2022-12-18T02:28:46;-3.60;99.90
3628;DHT22;1830;49.000;12.074;2022-12-18T02:31:19;-3.50;99.90
3628;DHT22;1830;49.000;12.074;2022-12-18T02:33:49;-3.50;99.90
3628;DHT22;1830;49.000;12.074;2022-12-18T02:36:17;-3.40;99.90
3628;DHT22;1830;49.000;12.074;2022-12-18T02:38:46;-3.60;99.90
3628;DHT22;1830;49.000;12.074;2022-12-18T02:41:14;-3.70;99.90
3628;DHT22;1830;49.000;12.074;2022-12-18T02:43:53;-3.60;99.90
3628;DHT22;1830;49.000;12.074;2022-12-18T02:46:31;-3.60;99.90
3628;DHT22;1830;49.000;12.074;2022-12-18T02:49:06;-3.60;99.90
3628;DHT22;1830;49.000;12.074;2022-12-18T02:51:43;-3.80;99.90
3628;DHT22;1830;49.000;12.074;2022-12-18T02:54:19;-3.60;99.90
3628;DHT22;1830;49.000;12.074;2022-12-18T02:56:51;-3.60;99.90
3628;DHT22;1830;49.000;12.074;2022-12-18T02:59:25;-3.50;99.90
3628;DHT22;1830;49.000;12.074;2022-12-18T03:01:58;-3.50;99.90
3628;DHT22;1830;49.000;12.074;2022-12-18T03:04:30;-3.40;99.90
3628;DHT22;1830;49.000;12.074;2022-12-18T03:07:02;-3.50;99.90
3628;DHT22;1830;49.000;12.074;2022-12-18T03:09:34;-3.60;99.90
3628;DHT22;1830;49.000;12.074;2022-12-18T03:12:05;-3.70;99.90
3628;DHT22;1830;49.000;12.074;2022-12-18T03:14:57;-3.70;99.90
3628;DHT22;1830;49.000;12.074;2022-12-18T03:17:27;-3.80;99.90
3628;DHT22;1830;49.000;12.074;2022-12-18T03:19:57;-3.70;99.90
3628;DHT22;1830;49.000;12.074;2022-12-18T03:22:27;-3.70;99.90
3628;DHT22;1830;49.000;12.074;2022-12-18T03:24:56;-3.70;99.90
3628;DHT22;1830;49.000;12.074;2022-12-18T03:27:24;-3.70;99.90
3628;DHT22;1830;49.000;12.074;2022-12-18T03:29:56;-3.60;99.90
3628;DHT22;1830;49.000;12.074;2022-12-18T03:32:35;-3.70;99.90
3628;DHT22;1830;49.000;12.074;2022-12-18T03:35:04;-3.70;99.90
3628;DHT22;1830;49.000;12.074;2022-12-18T03:37:32;-3.60;99.90
3628;DHT22;1830;49.000;12.074;2022-12-18T03:39:59;-3.50;99.90
3628;DHT22;1830;49.000;12.074;2022-12-18T03:42:29;-3.60;99.90
3628;DHT22;1830;49.000;12.074;2022-12-18T03:45:34;-3.70;99.90
3628;DHT22;1830;49.000;12.074;2022-12-18T03:48:05;-3.60;99.90
3628;DHT22;1830;49.000;12.074;2022-12-18T03:50:39;-3.60;99.90
3628;DHT22;1830;49.000;12.074;2022-12-18T03:54:10;-3.70;99.90
3628;DHT22;1830;49.000;12.074;2022-12-18T03:56:39;-3.70;99.90
3628;DHT22;1830;49.000;12.074;2022-12-18T03:59:10;-3.80;99.90
3628;DHT22;1830;49.000;12.074;2022-12-18T04:01:40;-3.70;99.90
3628;DHT22;1830;49.000;12.074;2022-12-18T04:04:08;-3.60;99.90
3628;DHT22;1830;49.000;12.074;2022-12-18T04:06:37;-3.70;99.90
3628;DHT22;1830;49.000;12.074;2022-12-18T04:09:05;-3.60;99.90
3628;DHT22;1830;49.000;12.074;2022-12-18T04:11:33;-3.70;99.90
3628;DHT22;1830;49.000;12.074;2022-12-18T04:14:00;-3.80;99.90
3628;DHT22;1830;49.000;12.074;2022-12-18T04:16:27;-3.90;99.90
3628;DHT22;1830;49.000;12.074;2022-12-18T04:18:54;-4.00;99.90
3628;DHT22;1830;49.000;12.074;2022-12-18T04:21:21;-3.90;99.90
3628;DHT22;1830;49.000;12.074;2022-12-18T04:23:48;-4.00;99.90
3628;DHT22;1830;49.000;12.074;2022-12-18T04:26:15;-3.80;99.90
3628;DHT22;1830;49.000;12.074;2022-12-18T04:28:43;-3.80;99.90
3628;DHT22;1830;49.000;12.074;2022-12-18T04:31:10;-3.80;99.90
3628;DHT22;1830;49.000;12.074;2022-12-18T04:33:37;-3.60;99.90
3628;DHT22;1830;49.000;12.074;2022-12-18T04:36:04;-3.50;99.90
3628;DHT22;1830;49.000;12.074;2022-12-18T04:38:31;-3.60;99.90
3628;DHT22;1830;49.000;12.074;2022-12-18T04:40:58;-3.60;99.90
3628;DHT22;1830;49.000;12.074;2022-12-18T04:43:25;-3.40;99.90
3628;DHT22;1830;49.000;12.074;2022-12-18T04:45:53;-3.40;99.90
3628;DHT22;1830;49.000;12.074;2022-12-18T04:48:20;-3.40;99.90
3628;DHT22;1830;49.000;12.074;2022-12-18T04:50:47;-3.50;99.90
3628;DHT22;1830;49.000;12.074;2022-12-18T04:53:14;-3.50;99.90
3628;DHT22;1830;49.000;12.074;2022-12-18T04:55:41;-3.50;99.90
3628;DHT22;1830;49.000;12.074;2022-12-18T04:58:08;-3.70;99.90
3628;DHT22;1830;49.000;12.074;2022-12-18T05:00:35;-3.60;99.90
3628;DHT22;1830;49.000;12.074;2022-12-18T05:03:03;-3.60;99.90
3628;DHT22;1830;49.000;12.074;2022-12-18T05:05:30;-3.80;99.90
3628;DHT22;1830;49.000;12.074;2022-12-18T05:07:57;-3.80;99.90
3628;DHT22;1830;49.000;12.074;2022-12-18T05:10:24;-3.80;99.90
3628;DHT22;1830;49.000;12.074;2022-12-18T05:12:50;-3.70;99.90
3628;DHT22;1830;49.000;12.074;2022-12-18T05:15:28;-3.70;99.90
3628;DHT22;1830;49.000;12.074;2022-12-18T05:17:55;-3.80;99.90
3628;DHT22;1830;49.000;12.074;2022-12-18T05:20:24;-3.90;99.90
3628;DHT22;1830;49.000;12.074;2022-12-18T05:22:51;-4.00;99.90
3628;DHT22;1830;49.000;12.074;2022-12-18T05:25:19;-4.00;99.90
3628;DHT22;1830;49.000;12.074;2022-12-18T05:27:48;-3.90;99.90
3628;DHT22;1830;49.000;12.074;2022-12-18T05:33:06;-4.00;99.90
3628;DHT22;1830;49.000;12.074;2022-12-18T05:35:33;-3.90;99.90
3628;DHT22;1830;49.000;12.074;2022-12-18T05:38:01;-3.90;99.90
3628;DHT22;1830;49.000;12.074;2022-12-18T05:40:28;-3.90;99.90
3628;DHT22;1830;49.000;12.074;2022-12-18T05:42:55;-4.00;99.90
3628;DHT22;1830;49.000;12.074;2022-12-18T05:45:22;-3.90;99.90
3628;DHT22;1830;49.000;12.074;2022-12-18T05:47:48;-3.80;99.90
3628;DHT22;1830;49.000;12.074;2022-12-18T05:50:17;-3.90;99.90
3628;DHT22;1830;49.000;12.074;2022-12-18T05:52:44;-3.90;99.90
3628;DHT22;1830;49.000;12.074;2022-12-18T05:55:10;-4.00;99.90
3628;DHT22;1830;49.000;12.074;2022-12-18T05:57:37;-4.00;99.90
3628;DHT22;1830;49.000;12.074;2022-12-18T06:00:05;-4.00;99.90
3628;DHT22;1830;49.000;12.074;2022-12-18T06:02:32;-4.00;99.90
3628;DHT22;1830;49.000;12.074;2022-12-18T06:04:59;-3.90;99.90
3628;DHT22;1830;49.000;12.074;2022-12-18T06:07:27;-4.10;99.90
3628;DHT22;1830;49.000;12.074;2022-12-18T06:09:53;-4.00;99.90
3628;DHT22;1830;49.000;12.074;2022-12-18T06:12:20;-4.00;99.90
3628;DHT22;1830;49.000;12.074;2022-12-18T06:14:47;-3.90;99.90
3628;DHT22;1830;49.000;12.074;2022-12-18T06:17:14;-4.00;99.90
3628;DHT22;1830;49.000;12.074;2022-12-18T06:19:41;-3.90;99.90
3628;DHT22;1830;49.000;12.074;2022-12-18T06:22:07;-4.00;99.90
3628;DHT22;1830;49.000;12.074;2022-12-18T06:24:36;-3.90;99.90
3628;DHT22;1830;49.000;12.074;2022-12-18T06:27:02;-3.90;99.90
3628;DHT22;1830;49.000;12.074;2022-12-18T06:29:29;-3.90;99.90
3628;DHT22;1830;49.000;12.074;2022-12-18T06:31:56;-4.00;99.90
3628;DHT22;1830;49.000;12.074;2022-12-18T06:34:23;-3.90;99.90
3628;DHT22;1830;49.000;12.074;2022-12-18T06:36:50;-4.00;99.90
3628;DHT22;1830;49.000;12.074;2022-12-18T06:39:16;-4.20;99.90
3628;DHT22;1830;49.000;12.074;2022-12-18T06:41:45;-4.30;99.90
3628;DHT22;1830;49.000;12.074;2022-12-18T06:44:11;-4.20;99.90
3628;DHT22;1830;49.000;12.074;2022-12-18T06:46:38;-4.00;99.90
3628;DHT22;1830;49.000;12.074;2022-12-18T06:49:05;-4.00;99.90
3628;DHT22;1830;49.000;12.074;2022-12-18T06:51:32;-4.00;99.90
3628;DHT22;1830;49.000;12.074;2022-12-18T06:53:59;-4.00;99.90
3628;DHT22;1830;49.000;12.074;2022-12-18T06:56:26;-4.00;99.90
3628;DHT22;1830;49.000;12.074;2022-12-18T06:58:54;-4.10;99.90
3628;DHT22;1830;49.000;12.074;2022-12-18T07:01:22;-4.10;99.90
3628;DHT22;1830;49.000;12.074;2022-12-18T07:03:52;-4.10;99.90
3628;DHT22;1830;49.000;12.074;2022-12-18T07:06:21;-4.00;99.90
3628;DHT22;1830;49.000;12.074;2022-12-18T07:08:49;-4.00;99.90
3628;DHT22;1830;49.000;12.074;2022-12-18T07:11:17;-3.80;99.90
3628;DHT22;1830;49.000;12.074;2022-12-18T07:13:44;-3.90;99.90
3628;DHT22;1830;49.000;12.074;2022-12-18T07:16:13;-3.90;99.90
3628;DHT22;1830;49.000;12.074;2022-12-18T07:18:41;-3.90;99.90
3628;DHT22;1830;49.000;12.074;2022-12-18T07:21:11;-3.90;99.90
3628;DHT22;1830;49.000;12.074;2022-12-18T07:23:38;-4.00;99.90
3628;DHT22;1830;49.000;12.074;2022-12-18T07:26:07;-3.90;99.90
3628;DHT22;1830;49.000;12.074;2022-12-18T07:28:35;-3.80;99.90
3628;DHT22;1830;49.000;12.074;2022-12-18T07:31:02;-3.80;99.90
3628;DHT22;1830;49.000;12.074;2022-12-18T07:33:31;-3.90;99.90
3628;DHT22;1830;49.000;12.074;2022-12-18T07:35:58;-3.80;99.90
3628;DHT22;1830;49.000;12.074;2022-12-18T07:38:25;-4.00;99.90
3628;DHT22;1830;49.000;12.074;2022-12-18T07:40:52;-4.10;99.90
3628;DHT22;1830;49.000;12.074;2022-12-18T07:43:19;-4.00;99.90
3628;DHT22;1830;49.000;12.074;2022-12-18T07:45:49;-4.10;99.90
3628;DHT22;1830;49.000;12.074;2022-12-18T07:48:16;-4.00;99.90
3628;DHT22;1830;49.000;12.074;2022-12-18T07:50:44;-4.00;99.90
3628;DHT22;1830;49.000;12.074;2022-12-18T07:53:11;-3.90;99.90
3628;DHT22;1830;49.000;12.074;2022-12-18T07:55:38;-4.00;99.90
3628;DHT22;1830;49.000;12.074;2022-12-18T07:58:05;-3.90;99.90
3628;DHT22;1830;49.000;12.074;2022-12-18T08:00:31;-3.80;99.90
3628;DHT22;1830;49.000;12.074;2022-12-18T08:02:58;-3.70;99.90
3628;DHT22;1830;49.000;12.074;2022-12-18T08:05:25;-3.70;99.90
3628;DHT22;1830;49.000;12.074;2022-12-18T08:07:54;-3.60;99.90
3628;DHT22;1830;49.000;12.074;2022-12-18T08:10:21;-3.70;99.90
3628;DHT22;1830;49.000;12.074;2022-12-18T08:12:49;-3.90;99.90
3628;DHT22;1830;49.000;12.074;2022-12-18T08:15:17;-3.90;99.90
3628;DHT22;1830;49.000;12.074;2022-12-18T08:17:44;-3.90;99.90
3628;DHT22;1830;49.000;12.074;2022-12-18T08:20:11;-4.00;99.90
3628;DHT22;1830;49.000;12.074;2022-12-18T08:22:39;-4.00;99.90
3628;DHT22;1830;49.000;12.074;2022-12-18T08:25:08;-4.10;99.90
3628;DHT22;1830;49.000;12.074;2022-12-18T08:27:35;-4.10;99.90
3628;DHT22;1830;49.000;12.074;2022-12-18T08:30:03;-4.30;99.90
3628;DHT22;1830;49.000;12.074;2022-12-18T08:32:30;-4.20;99.90
3628;DHT22;1830;49.000;12.074;2022-12-18T08:34:58;-4.30;99.90
3628;DHT22;1830;49.000;12.074;2022-12-18T08:37:25;-4.20;99.90
3628;DHT22;1830;49.000;12.074;2022-12-18T08:39:51;-4.20;99.90
3628;DHT22;1830;49.000;12.074;2022-12-18T08:42:20;-4.20;99.90
3628;DHT22;1830;49.000;12.074;2022-12-18T08:45:05;-4.10;99.90
3628;DHT22;1830;49.000;12.074;2022-12-18T08:47:31;-3.90;99.90
3628;DHT22;1830;49.000;12.074;2022-12-18T08:49:58;-3.90;99.90
3628;DHT22;1830;49.000;12.074;2022-12-18T08:52:25;-3.80;99.90
3628;DHT22;1830;49.000;12.074;2022-12-18T08:54:53;-3.70;99.90
3628;DHT22;1830;49.000;12.074;2022-12-18T08:57:21;-3.80;99.90
3628;DHT22;1830;49.000;12.074;2022-12-18T08:59:48;-3.90;99.90
3628;DHT22;1830;49.000;12.074;2022-12-18T09:02:15;-3.90;99.90
3628;DHT22;1830;49.000;12.074;2022-12-18T09:04:42;-4.00;99.90
3628;DHT22;1830;49.000;12.074;2022-12-18T09:07:09;-3.80;99.90
3628;DHT22;1830;49.000;12.074;2022-12-18T09:09:36;-3.80;99.90
3628;DHT22;1830;49.000;12.074;2022-12-18T09:12:03;-3.80;99.90
3628;DHT22;1830;49.000;12.074;2022-12-18T09:14:31;-3.80;99.90
3628;DHT22;1830;49.000;12.074;2022-12-18T09:16:58;-3.70;99.90
3628;DHT22;1830;49.000;12.074;2022-12-18T09:19:25;-3.80;99.90
3628;DHT22;1830;49.000;12.074;2022-12-18T09:21:51;-3.70;99.90
3628;DHT22;1830;49.000;12.074;2022-12-18T09:24:18;-3.80;99.90
3628;DHT22;1830;49.000;12.074;2022-12-18T09:26:45;-3.90;99.90
3628;DHT22;1830;49.000;12.074;2022-12-18T09:29:12;-3.90;99.90
3628;DHT22;1830;49.000;12.074;2022-12-18T09:31:40;-3.80;99.90
3628;DHT22;1830;49.000;12.074;2022-12-18T09:34:07;-3.80;99.90
3628;DHT22;1830;49.000;12.074;2022-12-18T09:36:34;-3.80;99.90
3628;DHT22;1830;49.000;12.074;2022-12-18T09:39:01;-3.80;99.90
3628;DHT22;1830;49.000;12.074;2022-12-18T09:41:39;-3.80;99.90
3628;DHT22;1830;49.000;12.074;2022-12-18T09:46:01;-3.70;99.90
3628;DHT22;1830;49.000;12.074;2022-12-18T09:48:32;-3.70;99.90
3628;DHT22;1830;49.000;12.074;2022-12-18T09:51:03;-3.80;99.90
3628;DHT22;1830;49.000;12.074;2022-12-18T09:53:34;-3.90;99.90
3628;DHT22;1830;49.000;12.074;2022-12-18T09:56:04;-4.00;99.90
3628;DHT22;1830;49.000;12.074;2022-12-18T09:58:34;-3.90;99.90
3628;DHT22;1830;49.000;12.074;2022-12-18T10:01:10;-4.00;99.90
3628;DHT22;1830;49.000;12.074;2022-12-18T10:05:26;-4.10;99.90
3628;DHT22;1830;49.000;12.074;2022-12-18T10:07:59;-4.10;99.90
3628;DHT22;1830;49.000;12.074;2022-12-18T10:10:38;-4.00;99.90
3628;DHT22;1830;49.000;12.074;2022-12-18T10:13:12;-3.90;99.90
3628;DHT22;1830;49.000;12.074;2022-12-18T10:15:51;-3.80;99.90
3628;DHT22;1830;49.000;12.074;2022-12-18T10:18:28;-3.90;99.90
3628;DHT22;1830;49.000;12.074;2022-12-18T10:21:05;-3.80;99.90
3628;DHT22;1830;49.000;12.074;2022-12-18T10:23:40;-3.60;99.90
3628;DHT22;1830;49.000;12.074;2022-12-18T10:26:10;-3.70;99.90
3628;DHT22;1830;49.000;12.074;2022-12-18T10:28:40;-3.70;99.90
3628;DHT22;1830;49.000;12.074;2022-12-18T10:31:07;-3.60;99.90
3628;DHT22;1830;49.000;12.074;2022-12-18T10:33:41;-3.50;99.90
3628;DHT22;1830;49.000;12.074;2022-12-18T10:36:09;-3.40;99.90
3628;DHT22;1830;49.000;12.074;2022-12-18T10:38:36;-3.40;99.90
3628;DHT22;1830;49.000;12.074;2022-12-18T10:41:05;-3.40;99.90
3628;DHT22;1830;49.000;12.074;2022-12-18T10:43:35;-3.30;99.90
3628;DHT22;1830;49.000;12.074;2022-12-18T10:46:14;-3.50;99.90
3628;DHT22;1830;49.000;12.074;2022-12-18T10:48:50;-3.40;99.90
3628;DHT22;1830;49.000;12.074;2022-12-18T10:51:24;-3.40;99.90
3628;DHT22;1830;49.000;12.074;2022-12-18T10:53:54;-3.60;99.90
3628;DHT22;1830;49.000;12.074;2022-12-18T10:56:24;-3.40;99.90
3628;DHT22;1830;49.000;12.074;2022-12-18T10:58:57;-3.40;99.90
3628;DHT22;1830;49.000;12.074;2022-12-18T11:01:24;-3.40;99.90
3628;DHT22;1830;49.000;12.074;2022-12-18T11:04:00;-3.60;99.90
3628;DHT22;1830;49.000;12.074;2022-12-18T11:06:29;-3.50;99.90
3628;DHT22;1830;49.000;12.074;2022-12-18T11:09:02;-3.70;99.90
3628;DHT22;1830;49.000;12.074;2022-12-18T11:11:31;-3.80;99.90
3628;DHT22;1830;49.000;12.074;2022-12-18T11:14:01;-3.60;99.90
3628;DHT22;1830;49.000;12.074;2022-12-18T11:16:34;-3.60;99.90
3628;DHT22;1830;49.000;12.074;2022-12-18T11:19:27;-3.50;99.90
3628;DHT22;1830;49.000;12.074;2022-12-18T11:21:57;-3.60;99.90
3628;DHT22;1830;49.000;12.074;2022-12-18T11:24:28;-3.40;99.90
3628;DHT22;1830;49.000;12.074;2022-12-18T11:26:59;-3.50;99.90
3628;DHT22;1830;49.000;12.074;2022-12-18T11:29:33;-3.40;99.90
3628;DHT22;1830;49.000;12.074;2022-12-18T11:32:27;-3.50;99.90
3628;DHT22;1830;49.000;12.074;2022-12-18T11:35:01;-3.50;99.90
3628;DHT22;1830;49.000;12.074;2022-12-18T11:37:31;-3.50;99.90
3628;DHT22;1830;49.000;12.074;2022-12-18T11:40:02;-3.60;99.90
3628;DHT22;1830;49.000;12.074;2022-12-18T11:42:38;-3.60;99.90
3628;DHT22;1830;49.000;12.074;2022-12-18T11:45:23;-3.70;99.90
3628;DHT22;1830;49.000;12.074;2022-12-18T11:47:56;-3.60;99.90
3628;DHT22;1830;49.000;12.074;2022-12-18T11:50:26;-3.70;99.90
3628;DHT22;1830;49.000;12.074;2022-12-18T11:52:56;-3.80;99.90
3628;DHT22;1830;49.000;12.074;2022-12-18T11:55:30;-3.70;99.90
3628;DHT22;1830;49.000;12.074;2022-12-18T11:58:05;-3.70;99.90
3628;DHT22;1830;49.000;12.074;2022-12-18T12:00:40;-3.50;99.90
3628;DHT22;1830;49.000;12.074;2022-12-18T12:03:24;-3.40;99.90
3628;DHT22;1830;49.000;12.074;2022-12-18T12:13:41;-3.40;99.90
3628;DHT22;1830;49.000;12.074;2022-12-18T12:22:04;-3.20;99.90
3628;DHT22;1830;49.000;12.074;2022-12-18T12:26:05;-3.20;99.90
3628;DHT22;1830;49.000;12.074;2022-12-18T12:30:57;-3.20;99.90
3628;DHT22;1830;49.000;12.074;2022-12-18T12:42:47;-3.20;99.90
3628;DHT22;1830;49.000;12.074;2022-12-18T12:45:52;-3.40;99.90
3628;DHT22;1830;49.000;12.074;2022-12-18T12:48:31;-3.20;99.90
3628;DHT22;1830;49.000;12.074;2022-12-18T12:52:30;-3.30;99.90
3628;DHT22;1830;49.000;12.074;2022-12-18T12:54:58;-3.40;99.90
3628;DHT22;1830;49.000;12.074;2022-12-18T12:57:31;-3.30;99.90
3628;DHT22;1830;49.000;12.074;2022-12-18T13:00:03;-3.20;99.90
3628;DHT22;1830;49.000;12.074;2022-12-18T15:09:33;-3.10;99.90
3628;DHT22;1830;49.000;12.074;2022-12-18T16:47:37;-3.50;99.90
3628;DHT22;1830;49.000;12.074;2022-12-18T16:50:05;-4.10;99.90
3628;DHT22;1830;49.000;12.074;2022-12-18T16:52:32;-4.00;99.90
3628;DHT22;1830;49.000;12.074;2022-12-18T16:54:59;-4.10;99.90
3628;DHT22;1830;49.000;12.074;2022-12-18T16:57:26;-4.00;99.90
3628;DHT22;1830;49.000;12.074;2022-12-18T16:59:53;-4.00;99.90
3628;DHT22;1830;49.000;12.074;2022-12-18T17:04:57;-3.90;99.90
3628;DHT22;1830;49.000;12.074;2022-12-18T17:07:25;-4.00;99.90
3628;DHT22;1830;49.000;12.074;2022-12-18T17:09:52;-4.00;99.90
3628;DHT22;1830;49.000;12.074;2022-12-18T17:12:20;-4.10;99.90
3628;DHT22;1830;49.000;12.074;2022-12-18T17:14:47;-4.00;99.90
3628;DHT22;1830;49.000;12.074;2022-12-18T17:17:13;-4.10;99.90
3628;DHT22;1830;49.000;12.074;2022-12-18T17:19:40;-4.00;99.90
3628;DHT22;1830;49.000;12.074;2022-12-18T17:22:09;-4.00;99.90
3628;DHT22;1830;49.000;12.074;2022-12-18T17:24:35;-4.10;99.90
3628;DHT22;1830;49.000;12.074;2022-12-18T17:27:08;-4.20;99.90
3628;DHT22;1830;49.000;12.074;2022-12-18T17:29:35;-4.20;99.90
3628;DHT22;1830;49.000;12.074;2022-12-18T17:32:02;-4.10;99.90
3628;DHT22;1830;49.000;12.074;2022-12-18T17:34:29;-4.10;99.90
3628;DHT22;1830;49.000;12.074;2022-12-18T17:36:56;-4.00;99.90
3628;DHT22;1830;49.000;12.074;2022-12-18T17:39:24;-4.00;99.90
3628;DHT22;1830;49.000;12.074;2022-12-18T17:41:53;-4.00;99.90
3628;DHT22;1830;49.000;12.074;2022-12-18T17:44:21;-4.10;99.90
3628;DHT22;1830;49.000;12.074;2022-12-18T17:46:48;-4.10;99.90
3628;DHT22;1830;49.000;12.074;2022-12-18T17:49:14;-4.10;99.90
3628;DHT22;1830;49.000;12.074;2022-12-18T17:51:41;-4.10;99.90
3628;DHT22;1830;49.000;12.074;2022-12-18T17:54:09;-4.10;99.90
3628;DHT22;1830;49.000;12.074;2022-12-18T17:56:37;-4.10;99.90
3628;DHT22;1830;49.000;12.074;2022-12-18T17:59:04;-4.20;99.90
3628;DHT22;1830;49.000;12.074;2022-12-18T18:01:32;-4.20;99.90
3628;DHT22;1830;49.000;12.074;2022-12-18T18:03:59;-4.20;99.90
3628;DHT22;1830;49.000;12.074;2022-12-18T18:06:26;-4.20;99.90
3628;DHT22;1830;49.000;12.074;2022-12-18T18:08:53;-4.30;99.90
3628;DHT22;1830;49.000;12.074;2022-12-18T18:11:21;-4.30;99.90
3628;DHT22;1830;49.000;12.074;2022-12-18T18:14:11;-4.30;99.90
3628;DHT22;1830;49.000;12.074;2022-12-18T18:16:40;-4.40;99.90
3628;DHT22;1830;49.000;12.074;2022-12-18T18:19:09;-4.40;99.90
3628;DHT22;1830;49.000;12.074;2022-12-18T18:23:22;-4.50;99.90
3628;DHT22;1830;49.000;12.074;2022-12-18T18:25:49;-4.50;99.90
3628;DHT22;1830;49.000;12.074;2022-12-18T18:28:16;-4.50;99.90
3628;DHT22;1830;49.000;12.074;2022-12-18T18:30:43;-4.40;99.90
3628;DHT22;1830;49.000;12.074;2022-12-18T18:33:09;-4.50;99.90
3628;DHT22;1830;49.000;12.074;2022-12-18T18:35:41;-4.60;99.90
3628;DHT22;1830;49.000;12.074;2022-12-18T18:38:07;-4.50;99.90
3628;DHT22;1830;49.000;12.074;2022-12-18T18:40:36;-4.50;99.90
3628;DHT22;1830;49.000;12.074;2022-12-18T18:43:02;-4.50;99.90
3628;DHT22;1830;49.000;12.074;2022-12-18T18:47:09;-4.60;99.90
3628;DHT22;1830;49.000;12.074;2022-12-18T18:49:36;-4.70;99.90
3628;DHT22;1830;49.000;12.074;2022-12-18T18:52:03;-4.60;99.90
3628;DHT22;1830;49.000;12.074;2022-12-18T18:54:31;-4.50;99.90
3628;DHT22;1830;49.000;12.074;2022-12-18T18:56:58;-4.50;99.90
3628;DHT22;1830;49.000;12.074;2022-12-18T18:59:25;-4.50;99.90
3628;DHT22;1830;49.000;12.074;2022-12-18T19:01:52;-4.60;99.90
3628;DHT22;1830;49.000;12.074;2022-12-18T19:04:26;-4.50;99.90
3628;DHT22;1830;49.000;12.074;2022-12-18T19:06:54;-4.60;99.90
3628;DHT22;1830;49.000;12.074;2022-12-18T19:09:21;-4.60;99.90
3628;DHT22;1830;49.000;12.074;2022-12-18T19:11:47;-4.70;99.90
3628;DHT22;1830;49.000;12.074;2022-12-18T19:14:32;-4.80;99.90
3628;DHT22;1830;49.000;12.074;2022-12-18T19:23:53;-4.80;99.90
3628;DHT22;1830;49.000;12.074;2022-12-18T19:26:20;-4.80;99.90
3628;DHT22;1830;49.000;12.074;2022-12-18T19:28:47;-4.70;99.90
3628;DHT22;1830;49.000;12.074;2022-12-18T19:31:15;-4.70;99.90
3628;DHT22;1830;49.000;12.074;2022-12-18T19:42:21;-4.80;99.90
3628;DHT22;1830;49.000;12.074;2022-12-18T19:50:11;-5.00;99.90
3628;DHT22;1830;49.000;12.074;2022-12-18T20:10:17;-4.90;99.90
3628;DHT22;1830;49.000;12.074;2022-12-18T20:17:24;-5.10;99.90
3628;DHT22;1830;49.000;12.074;2022-12-18T20:46:46;-5.10;99.90
3628;DHT22;1830;49.000;12.074;2022-12-18T20:49:13;-5.10;99.90
3628;DHT22;1830;49.000;12.074;2022-12-18T20:54:25;-5.00;99.90
3628;DHT22;1830;49.000;12.074;2022-12-18T20:56:53;-4.90;99.90
